sensor_id;sensor_type;location;lat;lon;timestamp;temperature;humidity
62573;DHT22;48626;51.678;5.806;2023-01-24T00:01:24;4.40;99.50
62573;DHT22;48626;51.678;5.806;2023-01-24T00:03:50;4.40;99.90
62573;DHT22;48626;51.678;5.806;2023-01-24T00:06:15;4.30;99.60
62573;DHT22;48626;51.678;5.806;2023-01-24T00:08:41;4.30;99.90
62573;DHT22;48626;51.678;5.806;2023-01-24T00:11:08;4.40;99.90
62573;DHT22;48626;51.678;5.806;2023-01-24T00:13:34;4.30;99.90
62573;DHT22;48626;51.678;5.806;2023-01-24T00:18:34;4.30;99.90
62573;DHT22;48626;51.678;5.806;2023-01-24T00:21:01;4.30;99.90
62573;DHT22;48626;51.678;5.806;2023-01-24T00:23:26;4.30;99.90
62573;DHT22;48626;51.678;5.806;2023-01-24T00:25:52;4.40;99.90
62573;DHT22;48626;51.678;5.806;2023-01-24T00:28:17;4.40;99.90
62573;DHT22;48626;51.678;5.806;2023-01-24T00:30:43;4.40;99.90
62573;DHT22;48626;51.678;5.806;2023-01-24T00:33:08;4.40;99.90
62573;DHT22;48626;51.678;5.806;2023-01-24T00:35:34;4.40;99.90
62573;DHT22;48626;51.678;5.806;2023-01-24T00:37:59;4.30;99.90
62573;DHT22;48626;51.678;5.806;2023-01-24T00:40:25;4.30;99.90
62573;DHT22;48626;51.678;5.806;2023-01-24T00:42:50;4.30;99.90
62573;DHT22;48626;51.678;5.806;2023-01-24T00:45:16;4.30;99.90
62573;DHT22;48626;51.678;5.806;2023-01-24T00:47:42;4.30;99.90
62573;DHT22;48626;51.678;5.806;2023-01-24T00:50:08;4.40;99.90
62573;DHT22;48626;51.678;5.806;2023-01-24T00:52:33;4.40;99.90
62573;DHT22;48626;51.678;5.806;2023-01-24T00:54:59;4.30;99.90
62573;DHT22;48626;51.678;5.806;2023-01-24T00:57:24;4.30;99.90
62573;DHT22;48626;51.678;5.806;2023-01-24T00:59:50;4.30;99.90
62573;DHT22;48626;51.678;5.806;2023-01-24T01:02:15;4.40;99.90
62573;DHT22;48626;51.678;5.806;2023-01-24T01:04:41;4.40;99.90
62573;DHT22;48626;51.678;5.806;2023-01-24T01:07:06;4.40;99.90
62573;DHT22;48626;51.678;5.806;2023-01-24T01:09:32;4.40;99.90
62573;DHT22;48626;51.678;5.806;2023-01-24T01:11:57;4.30;99.90
62573;DHT22;48626;51.678;5.806;2023-01-24T01:14:23;4.30;99.90
62573;DHT22;48626;51.678;5.806;2023-01-24T01:16:48;4.30;99.90
62573;DHT22;48626;51.678;5.806;2023-01-24T01:19:14;4.30;99.90
62573;DHT22;48626;51.678;5.806;2023-01-24T01:21:39;4.30;99.90
62573;DHT22;48626;51.678;5.806;2023-01-24T01:24:05;4.30;99.90
62573;DHT22;48626;51.678;5.806;2023-01-24T01:26:31;4.30;99.90
62573;DHT22;48626;51.678;5.806;2023-01-24T01:28:56;4.30;99.90
62573;DHT22;48626;51.678;5.806;2023-01-24T01:31:22;4.30;99.90
62573;DHT22;48626;51.678;5.806;2023-01-24T01:33:48;4.40;99.90
62573;DHT22;48626;51.678;5.806;2023-01-24T01:36:13;4.40;99.90
62573;DHT22;48626;51.678;5.806;2023-01-24T01:38:39;4.40;99.90
62573;DHT22;48626;51.678;5.806;2023-01-24T01:41:04;4.40;99.90
62573;DHT22;48626;51.678;5.806;2023-01-24T01:43:30;4.30;99.90
62573;DHT22;48626;51.678;5.806;2023-01-24T01:48:28;4.30;99.90
62573;DHT22;48626;51.678;5.806;2023-01-24T01:50:59;4.30;99.90
62573;DHT22;48626;51.678;5.806;2023-01-24T01:53:26;4.30;99.90
62573;DHT22;48626;51.678;5.806;2023-01-24T01:55:55;4.20;99.90
62573;DHT22;48626;51.678;5.806;2023-01-24T01:58:22;4.20;99.90
62573;DHT22;48626;51.678;5.806;2023-01-24T02:00:48;4.20;99.90
62573;DHT22;48626;51.678;5.806;2023-01-24T02:03:16;4.20;99.90
62573;DHT22;48626;51.678;5.806;2023-01-24T02:06:03;4.20;99.90
62573;DHT22;48626;51.678;5.806;2023-01-24T02:08:28;4.20;99.90
62573;DHT22;48626;51.678;5.806;2023-01-24T02:10:55;4.10;99.90
62573;DHT22;48626;51.678;5.806;2023-01-24T02:13:41;4.20;99.90
62573;DHT22;48626;51.678;5.806;2023-01-24T02:16:11;4.10;99.90
62573;DHT22;48626;51.678;5.806;2023-01-24T02:18:37;4.10;99.90
62573;DHT22;48626;51.678;5.806;2023-01-24T02:21:07;4.10;99.90
62573;DHT22;48626;51.678;5.806;2023-01-24T02:28:26;4.10;99.90
62573;DHT22;48626;51.678;5.806;2023-01-24T02:30:55;4.00;99.90
62573;DHT22;48626;51.678;5.806;2023-01-24T02:33:21;4.10;99.90
62573;DHT22;48626;51.678;5.806;2023-01-24T02:35:47;4.10;99.90
62573;DHT22;48626;51.678;5.806;2023-01-24T02:38:15;4.10;99.90
62573;DHT22;48626;51.678;5.806;2023-01-24T02:40:42;4.10;99.90
62573;DHT22;48626;51.678;5.806;2023-01-24T02:43:08;4.10;99.90
62573;DHT22;48626;51.678;5.806;2023-01-24T02:45:36;4.10;99.90
62573;DHT22;48626;51.678;5.806;2023-01-24T02:48:02;4.10;99.90
62573;DHT22;48626;51.678;5.806;2023-01-24T02:50:29;4.10;99.90
62573;DHT22;48626;51.678;5.806;2023-01-24T02:53:14;4.00;99.90
62573;DHT22;48626;51.678;5.806;2023-01-24T02:55:59;4.00;99.90
62573;DHT22;48626;51.678;5.806;2023-01-24T02:58:43;4.00;99.90
62573;DHT22;48626;51.678;5.806;2023-01-24T03:01:09;4.00;99.90
62573;DHT22;48626;51.678;5.806;2023-01-24T03:03:34;4.00;99.90
62573;DHT22;48626;51.678;5.806;2023-01-24T03:06:00;4.00;99.90
62573;DHT22;48626;51.678;5.806;2023-01-24T03:08:27;4.00;99.90
62573;DHT22;48626;51.678;5.806;2023-01-24T03:10:53;4.00;99.90
62573;DHT22;48626;51.678;5.806;2023-01-24T03:13:18;4.10;99.90
62573;DHT22;48626;51.678;5.806;2023-01-24T03:16:02;4.00;99.90
62573;DHT22;48626;51.678;5.806;2023-01-24T03:18:47;4.00;99.90
62573;DHT22;48626;51.678;5.806;2023-01-24T03:21:31;4.00;99.90
62573;DHT22;48626;51.678;5.806;2023-01-24T03:24:16;4.00;99.90
62573;DHT22;48626;51.678;5.806;2023-01-24T03:27:00;3.90;99.90
62573;DHT22;48626;51.678;5.806;2023-01-24T03:29:44;3.90;99.90
62573;DHT22;48626;51.678;5.806;2023-01-24T03:32:28;3.90;99.90
62573;DHT22;48626;51.678;5.806;2023-01-24T03:35:12;3.80;99.90
62573;DHT22;48626;51.678;5.806;2023-01-24T03:37:38;3.80;99.90
62573;DHT22;48626;51.678;5.806;2023-01-24T03:40:22;3.80;99.90
62573;DHT22;48626;51.678;5.806;2023-01-24T03:42:48;3.80;99.90
62573;DHT22;48626;51.678;5.806;2023-01-24T03:45:17;3.80;99.90
62573;DHT22;48626;51.678;5.806;2023-01-24T03:47:44;3.80;99.90
62573;DHT22;48626;51.678;5.806;2023-01-24T03:50:11;3.80;99.90
62573;DHT22;48626;51.678;5.806;2023-01-24T03:52:55;3.80;99.90
62573;DHT22;48626;51.678;5.806;2023-01-24T03:55:20;3.80;99.90
62573;DHT22;48626;51.678;5.806;2023-01-24T03:57:46;3.80;99.90
62573;DHT22;48626;51.678;5.806;2023-01-24T04:00:13;3.80;99.90
62573;DHT22;48626;51.678;5.806;2023-01-24T04:02:38;3.80;99.90
62573;DHT22;48626;51.678;5.806;2023-01-24T04:05:04;3.80;99.90
62573;DHT22;48626;51.678;5.806;2023-01-24T04:07:38;3.80;99.90
62573;DHT22;48626;51.678;5.806;2023-01-24T04:10:04;3.90;99.90
62573;DHT22;48626;51.678;5.806;2023-01-24T04:12:30;3.90;99.90
62573;DHT22;48626;51.678;5.806;2023-01-24T04:14:55;3.90;99.90
62573;DHT22;48626;51.678;5.806;2023-01-24T04:17:21;3.90;99.90
62573;DHT22;48626;51.678;5.806;2023-01-24T04:19:46;3.90;99.90
62573;DHT22;48626;51.678;5.806;2023-01-24T04:22:12;4.00;99.90
62573;DHT22;48626;51.678;5.806;2023-01-24T04:24:40;3.90;99.90
62573;DHT22;48626;51.678;5.806;2023-01-24T04:27:06;4.00;99.90
62573;DHT22;48626;51.678;5.806;2023-01-24T04:29:31;3.90;99.90
62573;DHT22;48626;51.678;5.806;2023-01-24T04:31:57;3.90;99.90
62573;DHT22;48626;51.678;5.806;2023-01-24T04:34:22;4.00;99.90
62573;DHT22;48626;51.678;5.806;2023-01-24T04:36:48;3.90;99.90
62573;DHT22;48626;51.678;5.806;2023-01-24T04:39:14;3.80;99.90
62573;DHT22;48626;51.678;5.806;2023-01-24T04:41:39;3.80;99.90
62573;DHT22;48626;51.678;5.806;2023-01-24T04:44:05;3.80;99.90
62573;DHT22;48626;51.678;5.806;2023-01-24T04:46:31;3.80;99.90
62573;DHT22;48626;51.678;5.806;2023-01-24T04:48:56;3.80;99.90
62573;DHT22;48626;51.678;5.806;2023-01-24T04:51:22;3.80;99.90
62573;DHT22;48626;51.678;5.806;2023-01-24T04:53:47;3.80;99.90
62573;DHT22;48626;51.678;5.806;2023-01-24T04:56:13;3.80;99.90
62573;DHT22;48626;51.678;5.806;2023-01-24T04:58:38;3.80;99.90
62573;DHT22;48626;51.678;5.806;2023-01-24T05:01:04;3.80;99.90
62573;DHT22;48626;51.678;5.806;2023-01-24T05:03:29;3.80;99.90
62573;DHT22;48626;51.678;5.806;2023-01-24T05:05:55;3.70;99.90
62573;DHT22;48626;51.678;5.806;2023-01-24T05:08:21;3.70;99.90
62573;DHT22;48626;51.678;5.806;2023-01-24T05:10:46;3.70;99.90
62573;DHT22;48626;51.678;5.806;2023-01-24T05:13:12;3.80;99.90
62573;DHT22;48626;51.678;5.806;2023-01-24T05:15:38;3.70;99.90
62573;DHT22;48626;51.678;5.806;2023-01-24T05:18:04;3.70;99.90
62573;DHT22;48626;51.678;5.806;2023-01-24T05:20:29;3.70;99.90
62573;DHT22;48626;51.678;5.806;2023-01-24T05:22:58;3.80;99.90
62573;DHT22;48626;51.678;5.806;2023-01-24T05:25:24;3.80;99.90
62573;DHT22;48626;51.678;5.806;2023-01-24T05:27:49;3.80;99.90
62573;DHT22;48626;51.678;5.806;2023-01-24T05:30:15;3.80;99.90
62573;DHT22;48626;51.678;5.806;2023-01-24T05:32:41;3.80;99.90
62573;DHT22;48626;51.678;5.806;2023-01-24T05:35:06;3.80;99.90
62573;DHT22;48626;51.678;5.806;2023-01-24T05:37:32;3.70;99.90
62573;DHT22;48626;51.678;5.806;2023-01-24T05:39:58;3.70;99.90
62573;DHT22;48626;51.678;5.806;2023-01-24T05:42:23;3.70;99.90
62573;DHT22;48626;51.678;5.806;2023-01-24T05:44:49;3.70;99.90
62573;DHT22;48626;51.678;5.806;2023-01-24T05:47:14;3.70;99.90
62573;DHT22;48626;51.678;5.806;2023-01-24T05:49:40;3.70;99.90
62573;DHT22;48626;51.678;5.806;2023-01-24T05:52:05;3.70;99.90
62573;DHT22;48626;51.678;5.806;2023-01-24T05:54:31;3.70;99.90
62573;DHT22;48626;51.678;5.806;2023-01-24T05:56:57;3.70;99.90
62573;DHT22;48626;51.678;5.806;2023-01-24T05:59:23;3.60;99.90
62573;DHT22;48626;51.678;5.806;2023-01-24T06:01:48;3.60;99.90
62573;DHT22;48626;51.678;5.806;2023-01-24T06:04:14;3.60;99.90
62573;DHT22;48626;51.678;5.806;2023-01-24T06:06:39;3.60;99.90
62573;DHT22;48626;51.678;5.806;2023-01-24T06:09:05;3.60;99.90
62573;DHT22;48626;51.678;5.806;2023-01-24T06:11:30;3.50;99.90
62573;DHT22;48626;51.678;5.806;2023-01-24T06:13:58;3.50;99.90
62573;DHT22;48626;51.678;5.806;2023-01-24T06:16:24;3.50;99.90
62573;DHT22;48626;51.678;5.806;2023-01-24T06:18:50;3.50;99.90
62573;DHT22;48626;51.678;5.806;2023-01-24T06:23:42;3.50;99.90
62573;DHT22;48626;51.678;5.806;2023-01-24T06:26:08;3.50;99.90
62573;DHT22;48626;51.678;5.806;2023-01-24T06:28:34;3.50;99.90
62573;DHT22;48626;51.678;5.806;2023-01-24T06:31:09;3.50;99.90
62573;DHT22;48626;51.678;5.806;2023-01-24T06:33:45;3.50;99.90
62573;DHT22;48626;51.678;5.806;2023-01-24T06:38:41;3.60;99.90
62573;DHT22;48626;51.678;5.806;2023-01-24T06:41:11;3.60;99.90
62573;DHT22;48626;51.678;5.806;2023-01-24T06:43:38;3.60;99.90
62573;DHT22;48626;51.678;5.806;2023-01-24T06:46:04;3.60;99.90
62573;DHT22;48626;51.678;5.806;2023-01-24T06:48:29;3.60;99.90
62573;DHT22;48626;51.678;5.806;2023-01-24T06:50:55;3.60;99.90
62573;DHT22;48626;51.678;5.806;2023-01-24T06:53:20;3.60;99.90
62573;DHT22;48626;51.678;5.806;2023-01-24T06:55:46;3.60;99.90
62573;DHT22;48626;51.678;5.806;2023-01-24T06:58:11;3.60;99.90
62573;DHT22;48626;51.678;5.806;2023-01-24T07:00:37;3.50;99.90
62573;DHT22;48626;51.678;5.806;2023-01-24T07:03:03;3.50;99.90
62573;DHT22;48626;51.678;5.806;2023-01-24T07:05:31;3.50;99.90
62573;DHT22;48626;51.678;5.806;2023-01-24T07:07:57;3.40;99.90
62573;DHT22;48626;51.678;5.806;2023-01-24T07:10:23;3.40;99.90
62573;DHT22;48626;51.678;5.806;2023-01-24T07:12:48;3.40;99.90
62573;DHT22;48626;51.678;5.806;2023-01-24T07:15:14;3.30;99.90
62573;DHT22;48626;51.678;5.806;2023-01-24T07:17:39;3.30;99.90
62573;DHT22;48626;51.678;5.806;2023-01-24T07:20:11;3.30;99.90
62573;DHT22;48626;51.678;5.806;2023-01-24T07:22:37;3.30;99.90
62573;DHT22;48626;51.678;5.806;2023-01-24T07:25:04;3.30;99.90
62573;DHT22;48626;51.678;5.806;2023-01-24T07:27:30;3.30;99.90
62573;DHT22;48626;51.678;5.806;2023-01-24T07:29:55;3.40;99.90
62573;DHT22;48626;51.678;5.806;2023-01-24T07:32:21;3.30;99.90
62573;DHT22;48626;51.678;5.806;2023-01-24T07:34:47;3.40;99.90
62573;DHT22;48626;51.678;5.806;2023-01-24T07:37:12;3.40;99.90
62573;DHT22;48626;51.678;5.806;2023-01-24T07:39:38;3.40;99.90
62573;DHT22;48626;51.678;5.806;2023-01-24T07:42:03;3.40;99.90
62573;DHT22;48626;51.678;5.806;2023-01-24T07:44:29;3.40;99.90
62573;DHT22;48626;51.678;5.806;2023-01-24T07:46:54;3.40;99.90
62573;DHT22;48626;51.678;5.806;2023-01-24T07:49:20;3.30;99.90
62573;DHT22;48626;51.678;5.806;2023-01-24T07:51:45;3.30;99.90
62573;DHT22;48626;51.678;5.806;2023-01-24T07:54:13;3.30;99.90
62573;DHT22;48626;51.678;5.806;2023-01-24T07:56:39;3.30;99.90
62573;DHT22;48626;51.678;5.806;2023-01-24T07:59:04;3.30;99.90
62573;DHT22;48626;51.678;5.806;2023-01-24T08:01:30;3.30;99.90
62573;DHT22;48626;51.678;5.806;2023-01-24T08:03:56;3.30;99.90
62573;DHT22;48626;51.678;5.806;2023-01-24T08:06:22;3.30;99.90
62573;DHT22;48626;51.678;5.806;2023-01-24T08:08:47;3.30;99.90
62573;DHT22;48626;51.678;5.806;2023-01-24T08:11:13;3.30;99.90
62573;DHT22;48626;51.678;5.806;2023-01-24T08:13:41;3.30;99.90
62573;DHT22;48626;51.678;5.806;2023-01-24T08:16:07;3.30;99.90
62573;DHT22;48626;51.678;5.806;2023-01-24T08:18:32;3.30;99.90
62573;DHT22;48626;51.678;5.806;2023-01-24T08:20:58;3.30;99.90
62573;DHT22;48626;51.678;5.806;2023-01-24T08:23:24;3.30;99.90
62573;DHT22;48626;51.678;5.806;2023-01-24T08:25:49;3.30;99.90
62573;DHT22;48626;51.678;5.806;2023-01-24T08:28:15;3.40;99.90
62573;DHT22;48626;51.678;5.806;2023-01-24T08:30:40;3.40;99.90
62573;DHT22;48626;51.678;5.806;2023-01-24T08:33:06;3.40;99.90
62573;DHT22;48626;51.678;5.806;2023-01-24T08:35:32;3.40;99.90
62573;DHT22;48626;51.678;5.806;2023-01-24T08:37:57;3.40;99.90
62573;DHT22;48626;51.678;5.806;2023-01-24T08:40:23;3.40;99.90
62573;DHT22;48626;51.678;5.806;2023-01-24T08:42:49;3.50;99.90
62573;DHT22;48626;51.678;5.806;2023-01-24T08:45:15;3.50;99.90
62573;DHT22;48626;51.678;5.806;2023-01-24T08:47:40;3.50;99.90
62573;DHT22;48626;51.678;5.806;2023-01-24T08:50:06;3.50;99.90
62573;DHT22;48626;51.678;5.806;2023-01-24T08:52:31;3.50;99.90
62573;DHT22;48626;51.678;5.806;2023-01-24T08:54:57;3.50;99.90
62573;DHT22;48626;51.678;5.806;2023-01-24T08:57:22;3.50;99.90
62573;DHT22;48626;51.678;5.806;2023-01-24T08:59:48;3.50;99.90
62573;DHT22;48626;51.678;5.806;2023-01-24T09:02:14;3.50;99.90
62573;DHT22;48626;51.678;5.806;2023-01-24T09:04:40;3.50;99.90
62573;DHT22;48626;51.678;5.806;2023-01-24T09:07:08;3.60;99.90
62573;DHT22;48626;51.678;5.806;2023-01-24T09:09:33;3.60;99.90
62573;DHT22;48626;51.678;5.806;2023-01-24T09:11:59;3.50;99.90
62573;DHT22;48626;51.678;5.806;2023-01-24T09:14:24;3.60;99.90
62573;DHT22;48626;51.678;5.806;2023-01-24T09:16:50;3.60;99.90
62573;DHT22;48626;51.678;5.806;2023-01-24T09:19:15;3.60;99.90
62573;DHT22;48626;51.678;5.806;2023-01-24T09:21:41;3.70;99.90
62573;DHT22;48626;51.678;5.806;2023-01-24T09:24:08;3.70;99.90
62573;DHT22;48626;51.678;5.806;2023-01-24T09:26:33;3.70;99.90
62573;DHT22;48626;51.678;5.806;2023-01-24T09:28:59;3.70;99.90
62573;DHT22;48626;51.678;5.806;2023-01-24T09:31:24;3.70;99.90
62573;DHT22;48626;51.678;5.806;2023-01-24T09:33:50;3.70;99.90
62573;DHT22;48626;51.678;5.806;2023-01-24T09:36:15;3.70;99.90
62573;DHT22;48626;51.678;5.806;2023-01-24T09:38:41;3.70;99.90
62573;DHT22;48626;51.678;5.806;2023-01-24T09:43:51;3.60;99.90
62573;DHT22;48626;51.678;5.806;2023-01-24T09:46:22;3.70;99.90
62573;DHT22;48626;51.678;5.806;2023-01-24T09:48:52;3.70;99.90
62573;DHT22;48626;51.678;5.806;2023-01-24T09:51:22;3.70;99.90
62573;DHT22;48626;51.678;5.806;2023-01-24T09:53:53;3.70;99.90
62573;DHT22;48626;51.678;5.806;2023-01-24T09:56:23;3.70;99.90
62573;DHT22;48626;51.678;5.806;2023-01-24T10:01:40;3.80;99.90
62573;DHT22;48626;51.678;5.806;2023-01-24T10:04:22;3.80;99.90
62573;DHT22;48626;51.678;5.806;2023-01-24T10:07:13;3.80;99.90
62573;DHT22;48626;51.678;5.806;2023-01-24T10:12:26;3.80;99.90
62573;DHT22;48626;51.678;5.806;2023-01-24T10:14:58;3.80;99.90
62573;DHT22;48626;51.678;5.806;2023-01-24T10:17:35;3.80;99.90
62573;DHT22;48626;51.678;5.806;2023-01-24T10:28:23;3.80;99.90
62573;DHT22;48626;51.678;5.806;2023-01-24T10:30:56;3.80;99.90
62573;DHT22;48626;51.678;5.806;2023-01-24T10:33:24;3.80;99.90
62573;DHT22;48626;51.678;5.806;2023-01-24T10:36:00;3.80;99.90
62573;DHT22;48626;51.678;5.806;2023-01-24T10:38:26;3.80;99.90
62573;DHT22;48626;51.678;5.806;2023-01-24T10:40:54;3.90;99.80
62573;DHT22;48626;51.678;5.806;2023-01-24T10:43:24;3.90;99.90
62573;DHT22;48626;51.678;5.806;2023-01-24T10:46:01;3.90;99.90
62573;DHT22;48626;51.678;5.806;2023-01-24T10:48:37;4.00;99.90
62573;DHT22;48626;51.678;5.806;2023-01-24T10:51:12;4.00;99.90
62573;DHT22;48626;51.678;5.806;2023-01-24T10:53:38;4.00;99.90
62573;DHT22;48626;51.678;5.806;2023-01-24T10:56:04;4.10;99.90
62573;DHT22;48626;51.678;5.806;2023-01-24T10:58:35;4.00;99.90
62573;DHT22;48626;51.678;5.806;2023-01-24T11:01:05;4.00;98.80
62573;DHT22;48626;51.678;5.806;2023-01-24T11:03:31;3.90;98.50
62573;DHT22;48626;51.678;5.806;2023-01-24T11:06:00;4.00;99.80
62573;DHT22;48626;51.678;5.806;2023-01-24T11:08:31;4.10;99.00
62573;DHT22;48626;51.678;5.806;2023-01-24T11:10:57;4.00;97.90
62573;DHT22;48626;51.678;5.806;2023-01-24T11:13:33;4.00;97.50
62573;DHT22;48626;51.678;5.806;2023-01-24T11:16:01;4.10;98.50
62573;DHT22;48626;51.678;5.806;2023-01-24T11:18:28;4.00;97.90
62573;DHT22;48626;51.678;5.806;2023-01-24T11:21:11;4.10;97.70
62573;DHT22;48626;51.678;5.806;2023-01-24T11:23:36;4.10;97.50
62573;DHT22;48626;51.678;5.806;2023-01-24T11:26:03;4.10;97.10
62573;DHT22;48626;51.678;5.806;2023-01-24T11:28:31;4.10;99.00
62573;DHT22;48626;51.678;5.806;2023-01-24T11:30:58;4.20;99.00
62573;DHT22;48626;51.678;5.806;2023-01-24T11:36:21;4.10;98.50
62573;DHT22;48626;51.678;5.806;2023-01-24T11:38:47;4.20;97.90
62573;DHT22;48626;51.678;5.806;2023-01-24T11:41:28;4.20;97.20
62573;DHT22;48626;51.678;5.806;2023-01-24T11:49:14;4.10;97.80
62573;DHT22;48626;51.678;5.806;2023-01-24T11:54:18;4.10;97.90
62573;DHT22;48626;51.678;5.806;2023-01-24T11:56:58;4.00;97.40
62573;DHT22;48626;51.678;5.806;2023-01-24T11:59:37;4.10;97.00
62573;DHT22;48626;51.678;5.806;2023-01-24T12:04:57;4.10;96.60
62573;DHT22;48626;51.678;5.806;2023-01-24T12:07:45;4.10;96.80
62573;DHT22;48626;51.678;5.806;2023-01-24T12:10:25;4.00;96.90
62573;DHT22;48626;51.678;5.806;2023-01-24T12:15:27;4.10;97.50
62573;DHT22;48626;51.678;5.806;2023-01-24T12:20:30;4.20;97.00
62573;DHT22;48626;51.678;5.806;2023-01-24T12:23:18;4.20;96.80
62573;DHT22;48626;51.678;5.806;2023-01-24T12:25:45;4.30;97.30
62573;DHT22;48626;51.678;5.806;2023-01-24T12:28:13;4.30;97.70
62573;DHT22;48626;51.678;5.806;2023-01-24T12:30:44;4.30;96.10
62573;DHT22;48626;51.678;5.806;2023-01-24T12:33:21;4.30;96.00
62573;DHT22;48626;51.678;5.806;2023-01-24T12:35:53;4.30;96.00
62573;DHT22;48626;51.678;5.806;2023-01-24T12:38:24;4.20;95.50
62573;DHT22;48626;51.678;5.806;2023-01-24T12:41:00;4.10;96.10
62573;DHT22;48626;51.678;5.806;2023-01-24T12:43:42;4.20;97.10
62573;DHT22;48626;51.678;5.806;2023-01-24T12:51:22;4.30;96.60
62573;DHT22;48626;51.678;5.806;2023-01-24T12:53:59;4.30;96.90
62573;DHT22;48626;51.678;5.806;2023-01-24T12:56:30;4.30;96.90
62573;DHT22;48626;51.678;5.806;2023-01-24T12:58:56;4.30;96.20
62573;DHT22;48626;51.678;5.806;2023-01-24T13:01:30;4.40;96.30
62573;DHT22;48626;51.678;5.806;2023-01-24T13:12:02;4.30;96.40
62573;DHT22;48626;51.678;5.806;2023-01-24T13:14:40;4.30;95.70
62573;DHT22;48626;51.678;5.806;2023-01-24T13:24:58;4.40;96.60
62573;DHT22;48626;51.678;5.806;2023-01-24T13:32:49;4.40;96.50
62573;DHT22;48626;51.678;5.806;2023-01-24T13:35:17;4.40;97.10
62573;DHT22;48626;51.678;5.806;2023-01-24T13:37:48;4.40;97.10
62573;DHT22;48626;51.678;5.806;2023-01-24T13:42:40;4.30;95.30
62573;DHT22;48626;51.678;5.806;2023-01-24T13:47:57;4.30;96.80
62573;DHT22;48626;51.678;5.806;2023-01-24T13:50:23;4.30;96.40
62573;DHT22;48626;51.678;5.806;2023-01-24T13:52:50;4.30;96.40
62573;DHT22;48626;51.678;5.806;2023-01-24T13:57:44;4.30;97.30
62573;DHT22;48626;51.678;5.806;2023-01-24T14:07:49;4.40;97.20
62573;DHT22;48626;51.678;5.806;2023-01-24T14:10:14;4.40;97.50
62573;DHT22;48626;51.678;5.806;2023-01-24T14:12:40;4.40;97.70
62573;DHT22;48626;51.678;5.806;2023-01-24T14:22:46;4.40;97.20
62573;DHT22;48626;51.678;5.806;2023-01-24T14:27:58;4.30;96.80
62573;DHT22;48626;51.678;5.806;2023-01-24T14:30:32;4.30;96.80
62573;DHT22;48626;51.678;5.806;2023-01-24T14:33:04;4.20;97.30
62573;DHT22;48626;51.678;5.806;2023-01-24T14:35:35;4.20;96.90
62573;DHT22;48626;51.678;5.806;2023-01-24T14:40:38;4.20;96.70
62573;DHT22;48626;51.678;5.806;2023-01-24T14:43:04;4.20;96.70
62573;DHT22;48626;51.678;5.806;2023-01-24T14:45:32;4.10;97.40
62573;DHT22;48626;51.678;5.806;2023-01-24T14:47:58;4.20;97.80
62573;DHT22;48626;51.678;5.806;2023-01-24T14:50:29;4.20;98.20
62573;DHT22;48626;51.678;5.806;2023-01-24T14:52:58;4.20;97.30
62573;DHT22;48626;51.678;5.806;2023-01-24T14:57:53;4.10;97.20
62573;DHT22;48626;51.678;5.806;2023-01-24T15:00:19;4.00;97.30
62573;DHT22;48626;51.678;5.806;2023-01-24T15:05:28;4.00;97.40
62573;DHT22;48626;51.678;5.806;2023-01-24T15:07:54;4.00;97.50
62573;DHT22;48626;51.678;5.806;2023-01-24T15:10:27;4.00;97.70
62573;DHT22;48626;51.678;5.806;2023-01-24T15:12:53;4.00;97.80
62573;DHT22;48626;51.678;5.806;2023-01-24T15:15:20;4.00;97.30
62573;DHT22;48626;51.678;5.806;2023-01-24T15:17:46;3.90;97.40
62573;DHT22;48626;51.678;5.806;2023-01-24T15:20:19;3.80;96.60
62573;DHT22;48626;51.678;5.806;2023-01-24T15:22:49;3.80;97.60
62573;DHT22;48626;51.678;5.806;2023-01-24T15:25:20;3.80;97.90
62573;DHT22;48626;51.678;5.806;2023-01-24T15:27:46;3.80;98.20
62573;DHT22;48626;51.678;5.806;2023-01-24T15:30:14;3.80;98.10
62573;DHT22;48626;51.678;5.806;2023-01-24T15:32:40;3.80;98.60
62573;DHT22;48626;51.678;5.806;2023-01-24T15:37:38;3.80;98.80
62573;DHT22;48626;51.678;5.806;2023-01-24T15:40:04;3.90;99.20
62573;DHT22;48626;51.678;5.806;2023-01-24T15:42:29;3.90;98.90
62573;DHT22;48626;51.678;5.806;2023-01-24T15:45:17;3.90;98.80
62573;DHT22;48626;51.678;5.806;2023-01-24T15:47:43;3.90;99.00
62573;DHT22;48626;51.678;5.806;2023-01-24T15:50:17;3.90;98.70
62573;DHT22;48626;51.678;5.806;2023-01-24T15:55:46;3.80;98.10
62573;DHT22;48626;51.678;5.806;2023-01-24T15:58:12;3.80;98.20
62573;DHT22;48626;51.678;5.806;2023-01-24T16:00:37;3.70;98.50
62573;DHT22;48626;51.678;5.806;2023-01-24T16:03:03;3.70;99.10
62573;DHT22;48626;51.678;5.806;2023-01-24T16:05:28;3.70;99.10
62573;DHT22;48626;51.678;5.806;2023-01-24T16:07:56;3.70;99.40
62573;DHT22;48626;51.678;5.806;2023-01-24T16:10:22;3.70;99.40
62573;DHT22;48626;51.678;5.806;2023-01-24T16:12:49;3.70;99.20
62573;DHT22;48626;51.678;5.806;2023-01-24T16:15:16;3.70;99.60
62573;DHT22;48626;51.678;5.806;2023-01-24T16:17:42;3.70;99.50
62573;DHT22;48626;51.678;5.806;2023-01-24T16:20:15;3.70;99.60
62573;DHT22;48626;51.678;5.806;2023-01-24T16:22:41;3.70;99.20
62573;DHT22;48626;51.678;5.806;2023-01-24T16:25:10;3.60;98.80
62573;DHT22;48626;51.678;5.806;2023-01-24T16:27:35;3.60;98.50
62573;DHT22;48626;51.678;5.806;2023-01-24T16:30:04;3.60;99.40
62573;DHT22;48626;51.678;5.806;2023-01-24T16:32:30;3.60;98.80
62573;DHT22;48626;51.678;5.806;2023-01-24T16:34:55;3.60;99.20
62573;DHT22;48626;51.678;5.806;2023-01-24T16:37:21;3.60;99.30
62573;DHT22;48626;51.678;5.806;2023-01-24T16:39:46;3.50;98.80
62573;DHT22;48626;51.678;5.806;2023-01-24T16:42:13;3.50;98.60
62573;DHT22;48626;51.678;5.806;2023-01-24T16:44:39;3.50;98.80
62573;DHT22;48626;51.678;5.806;2023-01-24T16:47:04;3.50;99.30
62573;DHT22;48626;51.678;5.806;2023-01-24T16:49:30;3.50;98.70
62573;DHT22;48626;51.678;5.806;2023-01-24T16:51:56;3.40;98.40
62573;DHT22;48626;51.678;5.806;2023-01-24T16:54:21;3.40;99.00
62573;DHT22;48626;51.678;5.806;2023-01-24T16:56:48;3.40;99.30
62573;DHT22;48626;51.678;5.806;2023-01-24T16:59:13;3.40;99.10
62573;DHT22;48626;51.678;5.806;2023-01-24T17:01:39;3.40;98.90
62573;DHT22;48626;51.678;5.806;2023-01-24T17:04:05;3.40;99.20
62573;DHT22;48626;51.678;5.806;2023-01-24T17:06:30;3.40;98.80
62573;DHT22;48626;51.678;5.806;2023-01-24T17:08:56;3.40;99.40
62573;DHT22;48626;51.678;5.806;2023-01-24T17:11:22;3.50;99.40
62573;DHT22;48626;51.678;5.806;2023-01-24T17:13:48;3.50;99.60
62573;DHT22;48626;51.678;5.806;2023-01-24T17:16:14;3.50;99.20
62573;DHT22;48626;51.678;5.806;2023-01-24T17:18:40;3.50;99.70
62573;DHT22;48626;51.678;5.806;2023-01-24T17:21:07;3.50;99.60
62573;DHT22;48626;51.678;5.806;2023-01-24T17:23:34;3.50;99.50
62573;DHT22;48626;51.678;5.806;2023-01-24T17:26:00;3.50;99.30
62573;DHT22;48626;51.678;5.806;2023-01-24T17:28:26;3.50;99.20
62573;DHT22;48626;51.678;5.806;2023-01-24T17:30:51;3.50;99.50
62573;DHT22;48626;51.678;5.806;2023-01-24T17:33:17;3.50;99.00
62573;DHT22;48626;51.678;5.806;2023-01-24T17:35:42;3.50;98.90
62573;DHT22;48626;51.678;5.806;2023-01-24T17:38:08;3.40;98.70
62573;DHT22;48626;51.678;5.806;2023-01-24T17:40:35;3.40;98.60
62573;DHT22;48626;51.678;5.806;2023-01-24T17:43:00;3.40;98.40
62573;DHT22;48626;51.678;5.806;2023-01-24T17:45:26;3.40;99.10